createdAt,value
2023-05-10T00:04:51.779Z,73.37
2023-05-10T00:09:54.266Z,73.32
2023-05-10T00:14:56.752Z,73.25
2023-05-10T00:20:01.343Z,73.43
2023-05-10T00:25:04.016Z,73.19
2023-05-10T00:30:08.234Z,72.95
2023-05-10T00:35:12.103Z,72.84
2023-05-10T00:40:15.410Z,73.03
2023-05-10T00:45:18.048Z,73.39
2023-05-10T00:50:21.994Z,73.64
2023-05-10T00:55:24.762Z,73.69
2023-05-10T01:00:27.325Z,73.93
2023-05-10T01:05:31.249Z,74.44
2023-05-10T01:10:33.863Z,74.31
2023-05-10T01:15:37.588Z,74.25
2023-05-10T01:20:47.261Z,75.00
2023-05-10T01:26:15.880Z,74.71
2023-05-10T01:31:37.860Z,74.96
2023-05-10T01:36:47.444Z,75.45
2023-05-10T01:41:55.033Z,75.26
2023-05-10T01:47:09.308Z,75.31
2023-05-10T01:52:16.775Z,75.48
2023-05-10T01:57:22.286Z,75.49
2023-05-10T02:02:27.810Z,75.63
2023-05-10T02:07:34.197Z,76.33
2023-05-10T02:12:38.725Z,76.39
2023-05-10T02:17:42.515Z,76.61
2023-05-10T02:22:47.715Z,76.85
2023-05-10T02:27:51.831Z,76.83
2023-05-10T02:32:55.120Z,77.39
2023-05-10T02:38:00.714Z,77.13
2023-05-10T02:43:04.678Z,77.69
2023-05-10T02:48:07.793Z,77.78
2023-05-10T02:53:20.109Z,77.91
2023-05-10T02:58:23.681Z,78.13
2023-05-10T03:03:26.225Z,78.36
2023-05-10T03:08:30.898Z,78.52
2023-05-10T03:13:41.599Z,78.89
2023-05-10T03:18:46.782Z,79.31
2023-05-10T03:23:58.487Z,80.00
2023-05-10T03:29:02.127Z,80.07
2023-05-10T03:34:04.632Z,80.27
2023-05-10T03:39:08.474Z,80.32
2023-05-10T03:44:11.619Z,81.13
2023-05-10T03:49:14.267Z,81.15
2023-05-10T03:54:18.331Z,81.35
2023-05-10T03:59:21.011Z,81.14
2023-05-10T04:04:24.119Z,81.53
2023-05-10T04:09:28.229Z,81.49
2023-05-10T04:14:30.740Z,82.00
2023-05-10T04:19:33.737Z,82.22
2023-05-10T04:24:37.595Z,82.71
2023-05-10T04:29:40.218Z,82.89
2023-05-10T04:34:42.706Z,82.90
2023-05-10T04:39:46.621Z,82.65
2023-05-10T04:44:49.134Z,82.38
2023-05-10T04:49:51.649Z,82.11
2023-05-10T04:54:55.655Z,81.34
2023-05-10T04:59:58.147Z,80.68
2023-05-10T05:05:00.651Z,79.78
2023-05-10T05:10:04.704Z,79.39
2023-05-10T05:15:09.883Z,78.29
2023-05-10T05:20:13.962Z,78.09
2023-05-10T05:25:17.904Z,77.81
2023-05-10T05:30:20.836Z,77.22
2023-05-10T05:35:23.370Z,76.31
2023-05-10T05:40:27.401Z,76.08
2023-05-10T05:45:29.968Z,75.99
2023-05-10T05:50:32.523Z,75.61
2023-05-10T05:55:36.350Z,75.13
2023-05-10T06:00:38.912Z,75.00
2023-05-10T06:05:41.419Z,74.67
2023-05-10T06:10:45.415Z,74.24
2023-05-10T06:15:48.019Z,74.14
2023-05-10T06:20:51.458Z,73.50
2023-05-10T06:25:55.378Z,73.30
2023-05-10T06:30:57.869Z,72.91
2023-05-10T06:36:00.459Z,72.08
2023-05-10T06:41:04.285Z,71.66
2023-05-10T06:46:06.955Z,71.40
2023-05-10T06:51:09.518Z,71.08
2023-05-10T06:56:13.313Z,70.59
2023-05-10T07:01:16.061Z,70.33
2023-05-10T07:06:29.418Z,70.19
2023-05-10T07:11:38.322Z,69.17
2023-05-10T07:16:41.014Z,67.77
2023-05-10T07:21:44.292Z,68.19
2023-05-10T07:26:48.148Z,68.98
2023-05-10T07:31:50.662Z,68.54
2023-05-10T07:36:53.267Z,67.41
2023-05-10T07:41:57.852Z,67.43
2023-05-10T07:47:00.396Z,67.24
2023-05-10T07:52:02.888Z,66.63
2023-05-10T07:57:07.203Z,65.33
2023-05-10T08:02:09.730Z,65.57
2023-05-10T08:07:12.281Z,65.86
2023-05-10T08:12:16.116Z,65.13
2023-05-10T08:17:20.058Z,64.69
2023-05-10T08:22:23.185Z,64.27
2023-05-10T08:27:27.057Z,63.11
2023-05-10T08:32:29.581Z,63.50
2023-05-10T08:37:33.227Z,63.12
2023-05-10T08:42:38.780Z,62.83
2023-05-10T08:47:41.610Z,61.74
2023-05-10T08:52:44.751Z,61.69
2023-05-10T08:57:48.820Z,60.75
2023-05-10T09:02:51.869Z,62.00
2023-05-10T09:07:54.746Z,62.02
2023-05-10T09:12:59.782Z,61.63
2023-05-10T09:18:03.351Z,61.78
2023-05-10T09:23:05.996Z,61.76
2023-05-10T09:28:10.840Z,61.96
2023-05-10T09:33:13.346Z,61.75
2023-05-10T09:38:16.309Z,61.50
2023-05-10T09:43:20.138Z,60.73
2023-05-10T09:48:26.686Z,60.41
2023-05-10T09:53:29.230Z,60.53
2023-05-10T09:58:33.101Z,59.70
2023-05-10T10:03:35.781Z,58.96
2023-05-10T10:08:38.772Z,58.48
2023-05-10T10:13:42.691Z,57.60
2023-05-10T10:18:45.519Z,57.11
2023-05-10T10:23:48.457Z,56.72
2023-05-10T10:29:02.183Z,56.34
2023-05-10T10:34:07.983Z,56.20
2023-05-10T10:39:12.377Z,55.78
2023-05-10T10:44:36.398Z,55.35
2023-05-10T10:49:44.806Z,55.17
2023-05-10T10:54:52.923Z,55.36
2023-05-10T11:00:20.628Z,55.12
2023-05-10T11:05:37.999Z,54.95
2023-05-10T11:10:42.077Z,55.07
2023-05-10T11:15:51.681Z,54.95
2023-05-10T11:20:57.026Z,54.74
2023-05-10T11:26:00.722Z,54.68
2023-05-10T11:31:04.718Z,54.58
2023-05-10T11:36:07.802Z,54.42
2023-05-10T11:41:10.990Z,54.96
2023-05-10T11:46:15.373Z,54.33
2023-05-10T11:51:22.454Z,54.62
2023-05-10T11:56:27.000Z,54.31
2023-05-10T12:01:31.006Z,54.34
2023-05-10T12:06:39.640Z,54.46
2023-05-10T12:11:44.329Z,54.53
2023-05-10T12:16:49.824Z,53.83
2023-05-10T12:21:52.414Z,54.00
2023-05-10T12:26:54.901Z,53.32
2023-05-10T12:32:00.851Z,53.28
2023-05-10T12:37:04.523Z,53.63
2023-05-10T12:42:07.303Z,53.67
2023-05-10T12:47:11.722Z,53.18
2023-05-10T12:52:14.318Z,53.68
2023-05-10T12:57:16.830Z,54.21
2023-05-10T13:02:21.947Z,53.97
2023-05-10T13:07:24.438Z,53.38
2023-05-10T13:12:27.195Z,53.68
2023-05-10T13:17:32.232Z,53.85
2023-05-10T13:22:40.633Z,54.01
2023-05-10T13:27:43.457Z,53.69
2023-05-10T13:32:47.519Z,53.47
2023-05-10T13:37:50.027Z,53.88
2023-05-10T13:42:53.961Z,53.91
2023-05-10T13:47:58.267Z,53.90
2023-05-10T13:53:01.096Z,54.13
2023-05-10T13:58:03.631Z,53.74
2023-05-10T14:03:10.029Z,53.79
2023-05-10T14:08:14.141Z,53.45
2023-05-10T14:13:17.160Z,53.40
2023-05-10T14:18:20.995Z,53.67
2023-05-10T14:23:25.163Z,53.55
2023-05-10T14:28:27.738Z,53.51
2023-05-10T14:33:31.604Z,53.78
2023-05-10T14:38:34.217Z,53.44
2023-05-10T14:43:37.571Z,53.24
2023-05-10T14:48:41.414Z,53.47
2023-05-10T14:53:44.679Z,52.92
2023-05-10T14:58:47.196Z,53.10
2023-05-10T15:03:51.207Z,52.71
2023-05-10T15:08:54.264Z,52.20
2023-05-10T15:13:57.132Z,52.35
2023-05-10T15:19:01.107Z,52.29
2023-05-10T15:24:03.766Z,52.68
2023-05-10T15:29:06.294Z,52.36
2023-05-10T15:34:10.173Z,52.74
2023-05-10T15:39:12.987Z,52.64
2023-05-10T15:44:15.500Z,52.13
2023-05-10T15:49:19.333Z,52.19
2023-05-10T15:54:21.856Z,52.45
2023-05-10T15:59:24.358Z,52.42
2023-05-10T16:04:28.206Z,52.41
2023-05-10T16:09:30.760Z,52.74
2023-05-10T16:14:33.371Z,55.11
2023-05-10T16:19:37.271Z,58.35
2023-05-10T16:24:39.787Z,59.35
2023-05-10T16:29:42.280Z,60.43
2023-05-10T16:34:46.135Z,61.34
2023-05-10T16:39:48.978Z,62.01
2023-05-10T16:44:51.470Z,62.91
2023-05-10T16:49:56.089Z,62.72
2023-05-10T16:54:58.874Z,63.29
2023-05-10T17:00:01.486Z,63.43
2023-05-10T17:05:06.195Z,63.92
2023-05-10T17:10:09.576Z,64.38
2023-05-10T17:15:12.653Z,64.64
2023-05-10T17:20:16.681Z,64.87
2023-05-10T17:25:19.621Z,65.58
2023-05-10T17:30:26.284Z,66.17
2023-05-10T17:35:31.430Z,66.90
2023-05-10T17:40:33.977Z,67.26
2023-05-10T17:45:37.079Z,68.00
2023-05-10T17:50:42.720Z,69.52
2023-05-10T17:55:45.278Z,70.01
2023-05-10T18:00:47.807Z,70.63
2023-05-10T18:05:51.921Z,71.34
2023-05-10T18:10:54.445Z,71.77
2023-05-10T18:15:57.041Z,72.03
2023-05-10T18:21:01.036Z,72.09
2023-05-10T18:26:03.719Z,72.32
2023-05-10T18:31:06.337Z,72.96
2023-05-10T18:36:10.438Z,73.40
2023-05-10T18:41:14.524Z,74.20
2023-05-10T18:46:17.269Z,75.26
2023-05-10T18:51:22.136Z,75.11
2023-05-10T18:56:24.805Z,75.53
2023-05-10T19:01:27.364Z,76.13
2023-05-10T19:06:31.447Z,76.29
2023-05-10T19:11:34.510Z,76.95
2023-05-10T19:16:37.239Z,77.14
2023-05-10T19:21:41.206Z,77.46
2023-05-10T19:26:43.726Z,77.83
2023-05-10T19:31:46.463Z,77.95
2023-05-10T19:36:50.702Z,78.40
2023-05-10T19:41:53.408Z,78.49
2023-05-10T19:46:56.195Z,78.54
2023-05-10T19:52:00.074Z,78.79
2023-05-10T19:57:02.639Z,79.09
2023-05-10T20:02:05.350Z,79.31
2023-05-10T20:07:14.668Z,79.51
2023-05-10T20:12:18.819Z,79.32
2023-05-10T20:17:23.632Z,79.52
2023-05-10T20:22:29.686Z,79.91
2023-05-10T20:27:41.559Z,80.33
2023-05-10T20:32:44.535Z,80.71
2023-05-10T20:37:48.623Z,81.11
2023-05-10T20:42:53.887Z,81.82
2023-05-10T20:47:56.988Z,82.52
2023-05-10T20:53:02.093Z,83.00
2023-05-10T20:58:05.083Z,83.14
2023-05-10T21:03:07.955Z,83.35
2023-05-10T21:08:11.806Z,83.93
2023-05-10T21:13:14.409Z,84.70
2023-05-10T21:18:16.973Z,85.35
2023-05-10T21:23:20.867Z,85.18
2023-05-10T21:28:23.430Z,85.09
2023-05-10T21:33:25.959Z,84.88
2023-05-10T21:38:29.814Z,85.05
2023-05-10T21:43:32.300Z,85.16
2023-05-10T21:48:34.813Z,85.61
2023-05-10T21:53:40.411Z,85.71
2023-05-10T21:58:42.925Z,85.85
2023-05-10T22:03:45.717Z,85.87
2023-05-10T22:08:49.576Z,85.80
2023-05-10T22:13:52.078Z,86.14
2023-05-10T22:18:55.053Z,86.15
2023-05-10T22:23:58.986Z,86.49
2023-05-10T22:29:01.619Z,86.58
2023-05-10T22:34:04.121Z,86.36
2023-05-10T22:39:08.307Z,86.83
2023-05-10T22:44:10.808Z,87.12
2023-05-10T22:49:13.888Z,87.13
2023-05-10T22:54:17.735Z,87.52
2023-05-10T22:59:20.757Z,87.67
2023-05-10T23:04:23.291Z,88.22
2023-05-10T23:09:27.184Z,88.32
2023-05-10T23:14:30.087Z,87.99
2023-05-10T23:19:32.585Z,88.09
2023-05-10T23:24:36.880Z,87.98
2023-05-10T23:29:39.386Z,88.09
2023-05-10T23:34:41.879Z,88.21
2023-05-10T23:39:45.710Z,88.35
2023-05-10T23:44:48.187Z,88.62
2023-05-10T23:49:50.988Z,88.60
2023-05-10T23:54:54.987Z,88.57
2023-05-10T23:59:57.493Z,88.99
